sensor_id;sensor_type;location;lat;lon;timestamp;pressure;altitude;pressure_sealevel;temperature;humidity
14117;BME280;7137;51.436;6.544;2023-05-09T00:01:05;101344.75;;;17.73;92.95
14117;BME280;7137;51.436;6.544;2023-05-09T00:04:07;101338.72;;;17.52;94.48
14117;BME280;7137;51.436;6.544;2023-05-09T00:07:08;101336.00;;;17.54;94.27
14117;BME280;7137;51.436;6.544;2023-05-09T00:10:10;101341.06;;;17.41;94.32
14117;BME280;7137;51.436;6.544;2023-05-09T00:13:13;101342.06;;;17.39;95.78
14117;BME280;7137;51.436;6.544;2023-05-09T00:16:15;101332.84;;;17.47;95.81
14117;BME280;7137;51.436;6.544;2023-05-09T00:19:17;101332.59;;;17.52;95.19
14117;BME280;7137;51.436;6.544;2023-05-09T00:22:19;101325.16;;;17.60;95.50
14117;BME280;7137;51.436;6.544;2023-05-09T00:25:21;101324.13;;;17.63;95.18
14117;BME280;7137;51.436;6.544;2023-05-09T00:28:24;101319.53;;;17.66;95.03
14117;BME280;7137;51.436;6.544;2023-05-09T00:31:26;101323.88;;;17.67;94.32
14117;BME280;7137;51.436;6.544;2023-05-09T00:34:28;101309.69;;;17.70;94.76
14117;BME280;7137;51.436;6.544;2023-05-09T00:37:30;101306.97;;;17.71;94.76
14117;BME280;7137;51.436;6.544;2023-05-09T00:40:31;101296.94;;;17.61;95.04
14117;BME280;7137;51.436;6.544;2023-05-09T00:43:34;101304.50;;;17.68;94.35
14117;BME280;7137;51.436;6.544;2023-05-09T00:46:36;101299.81;;;17.73;94.59
14117;BME280;7137;51.436;6.544;2023-05-09T00:49:38;101297.97;;;17.75;94.79
14117;BME280;7137;51.436;6.544;2023-05-09T00:52:40;101299.69;;;17.76;94.87
14117;BME280;7137;51.436;6.544;2023-05-09T00:55:42;101294.50;;;17.56;95.37
14117;BME280;7137;51.436;6.544;2023-05-09T00:58:45;101288.00;;;17.80;94.43
14117;BME280;7137;51.436;6.544;2023-05-09T01:01:47;101286.13;;;17.83;94.75
14117;BME280;7137;51.436;6.544;2023-05-09T01:04:48;101285.44;;;17.79;94.43
14117;BME280;7137;51.436;6.544;2023-05-09T01:07:56;101273.34;;;17.75;94.80
14117;BME280;7137;51.436;6.544;2023-05-09T01:11:07;101269.09;;;17.88;93.43
14117;BME280;7137;51.436;6.544;2023-05-09T01:14:17;101261.22;;;17.87;94.19
14117;BME280;7137;51.436;6.544;2023-05-09T01:17:32;101261.31;;;17.85;93.68
14117;BME280;7137;51.436;6.544;2023-05-09T01:20:38;101268.47;;;17.83;94.28
14117;BME280;7137;51.436;6.544;2023-05-09T01:23:58;101254.13;;;17.71;94.84
14117;BME280;7137;51.436;6.544;2023-05-09T01:27:20;101252.25;;;17.73;94.86
14117;BME280;7137;51.436;6.544;2023-05-09T01:30:25;101247.72;;;17.58;94.87
14117;BME280;7137;51.436;6.544;2023-05-09T01:33:27;101242.44;;;17.58;95.93
14117;BME280;7137;51.436;6.544;2023-05-09T01:36:35;101251.47;;;17.54;96.07
14117;BME280;7137;51.436;6.544;2023-05-09T01:39:40;101251.72;;;17.49;96.39
14117;BME280;7137;51.436;6.544;2023-05-09T01:46:41;101257.44;;;17.92;94.33
14117;BME280;7137;51.436;6.544;2023-05-09T01:49:44;101247.28;;;18.00;92.79
14117;BME280;7137;51.436;6.544;2023-05-09T01:52:48;101244.31;;;18.06;91.28
14117;BME280;7137;51.436;6.544;2023-05-09T01:55:51;101240.72;;;17.92;91.89
14117;BME280;7137;51.436;6.544;2023-05-09T01:58:54;101238.06;;;17.92;91.33
14117;BME280;7137;51.436;6.544;2023-05-09T02:01:58;101239.94;;;17.90;91.69
14117;BME280;7137;51.436;6.544;2023-05-09T02:05:00;101230.19;;;17.74;92.74
14117;BME280;7137;51.436;6.544;2023-05-09T02:08:02;101230.50;;;17.68;93.75
14117;BME280;7137;51.436;6.544;2023-05-09T02:11:04;101228.63;;;17.70;94.83
14117;BME280;7137;51.436;6.544;2023-05-09T02:14:05;101232.88;;;17.90;93.29
14117;BME280;7137;51.436;6.544;2023-05-09T02:17:08;101230.03;;;17.77;94.29
14117;BME280;7137;51.436;6.544;2023-05-09T02:20:10;101234.28;;;17.80;94.11
14117;BME280;7137;51.436;6.544;2023-05-09T02:23:12;101230.41;;;17.70;94.60
14117;BME280;7137;51.436;6.544;2023-05-09T02:26:14;101240.50;;;17.44;95.82
14117;BME280;7137;51.436;6.544;2023-05-09T02:29:18;101236.63;;;17.17;98.50
14117;BME280;7137;51.436;6.544;2023-05-09T02:36:21;101242.13;;;17.82;93.44
14117;BME280;7137;51.436;6.544;2023-05-09T02:39:23;101241.38;;;17.79;94.11
14117;BME280;7137;51.436;6.544;2023-05-09T02:42:25;101230.94;;;17.59;94.19
14117;BME280;7137;51.436;6.544;2023-05-09T02:45:29;101232.03;;;17.55;95.60
14117;BME280;7137;51.436;6.544;2023-05-09T02:48:31;101222.50;;;17.52;94.78
14117;BME280;7137;51.436;6.544;2023-05-09T02:51:34;101226.25;;;17.48;95.44
14117;BME280;7137;51.436;6.544;2023-05-09T02:54:35;101222.31;;;17.56;95.73
14117;BME280;7137;51.436;6.544;2023-05-09T02:57:37;101221.84;;;17.65;94.30
14117;BME280;7137;51.436;6.544;2023-05-09T03:00:38;101214.81;;;17.48;94.51
14117;BME280;7137;51.436;6.544;2023-05-09T03:03:40;101214.22;;;17.59;94.32
14117;BME280;7137;51.436;6.544;2023-05-09T03:06:43;101213.66;;;17.36;95.27
14117;BME280;7137;51.436;6.544;2023-05-09T03:09:44;101213.59;;;17.20;95.97
14117;BME280;7137;51.436;6.544;2023-05-09T03:12:46;101212.97;;;17.15;96.41
14117;BME280;7137;51.436;6.544;2023-05-09T03:15:47;101215.75;;;17.12;96.87
14117;BME280;7137;51.436;6.544;2023-05-09T03:18:49;101215.91;;;17.09;97.08
14117;BME280;7137;51.436;6.544;2023-05-09T03:21:51;101216.06;;;17.24;97.67
14117;BME280;7137;51.436;6.544;2023-05-09T03:24:53;101217.72;;;17.09;97.31
14117;BME280;7137;51.436;6.544;2023-05-09T03:27:55;101212.88;;;17.17;97.77
14117;BME280;7137;51.436;6.544;2023-05-09T03:30:56;101212.25;;;17.12;98.14
14117;BME280;7137;51.436;6.544;2023-05-09T03:33:57;101212.25;;;17.12;98.60
14117;BME280;7137;51.436;6.544;2023-05-09T03:37:00;101200.31;;;17.05;98.38
14117;BME280;7137;51.436;6.544;2023-05-09T03:40:02;101195.97;;;17.21;98.36
14117;BME280;7137;51.436;6.544;2023-05-09T03:43:05;101191.53;;;17.21;98.08
14117;BME280;7137;51.436;6.544;2023-05-09T03:46:06;101181.88;;;17.38;97.26
14117;BME280;7137;51.436;6.544;2023-05-09T03:49:08;101191.69;;;17.36;97.24
14117;BME280;7137;51.436;6.544;2023-05-09T03:52:11;101182.22;;;17.32;97.76
14117;BME280;7137;51.436;6.544;2023-05-09T03:55:12;101184.53;;;17.38;97.26
14117;BME280;7137;51.436;6.544;2023-05-09T03:58:14;101171.16;;;17.41;96.47
14117;BME280;7137;51.436;6.544;2023-05-09T04:01:15;101171.84;;;17.44;95.99
14117;BME280;7137;51.436;6.544;2023-05-09T04:04:17;101171.25;;;17.39;96.32
14117;BME280;7137;51.436;6.544;2023-05-09T04:07:20;101169.53;;;17.38;96.13
14117;BME280;7137;51.436;6.544;2023-05-09T04:10:22;101164.16;;;17.40;96.69
14117;BME280;7137;51.436;6.544;2023-05-09T04:13:24;101160.94;;;17.35;96.24
14117;BME280;7137;51.436;6.544;2023-05-09T04:16:27;101159.00;;;17.54;95.12
14117;BME280;7137;51.436;6.544;2023-05-09T04:19:28;101161.66;;;17.54;95.01
14117;BME280;7137;51.436;6.544;2023-05-09T04:22:31;101152.56;;;17.60;94.35
14117;BME280;7137;51.436;6.544;2023-05-09T04:25:32;101155.13;;;17.61;94.72
14117;BME280;7137;51.436;6.544;2023-05-09T04:28:34;101156.53;;;17.51;95.45
14117;BME280;7137;51.436;6.544;2023-05-09T04:31:36;101151.06;;;17.54;95.52
14117;BME280;7137;51.436;6.544;2023-05-09T04:34:37;101159.09;;;17.52;96.49
14117;BME280;7137;51.436;6.544;2023-05-09T04:37:40;101156.44;;;17.52;95.99
14117;BME280;7137;51.436;6.544;2023-05-09T04:40:42;101158.31;;;17.50;95.75
14117;BME280;7137;51.436;6.544;2023-05-09T04:43:43;101157.09;;;17.40;97.07
14117;BME280;7137;51.436;6.544;2023-05-09T04:46:45;101153.63;;;17.23;97.37
14117;BME280;7137;51.436;6.544;2023-05-09T04:49:46;101159.13;;;17.35;98.29
14117;BME280;7137;51.436;6.544;2023-05-09T04:52:49;101158.44;;;17.32;98.52
14117;BME280;7137;51.436;6.544;2023-05-09T04:55:51;101149.34;;;17.37;98.16
14117;BME280;7137;51.436;6.544;2023-05-09T04:58:52;101145.00;;;17.36;98.10
14117;BME280;7137;51.436;6.544;2023-05-09T05:01:54;101140.22;;;17.43;98.28
14117;BME280;7137;51.436;6.544;2023-05-09T05:04:55;101133.19;;;17.59;97.40
14117;BME280;7137;51.436;6.544;2023-05-09T05:07:58;101137.56;;;17.60;97.17
14117;BME280;7137;51.436;6.544;2023-05-09T05:10:59;101138.00;;;17.68;96.29
14117;BME280;7137;51.436;6.544;2023-05-09T05:14:01;101130.31;;;17.64;95.71
14117;BME280;7137;51.436;6.544;2023-05-09T05:17:03;101130.31;;;17.64;95.26
14117;BME280;7137;51.436;6.544;2023-05-09T05:20:05;101133.03;;;17.62;95.30
14117;BME280;7137;51.436;6.544;2023-05-09T05:23:11;101127.91;;;17.59;96.04
14117;BME280;7137;51.436;6.544;2023-05-09T05:26:12;101121.75;;;17.59;95.41
14117;BME280;7137;51.436;6.544;2023-05-09T05:29:14;101123.69;;;17.72;95.38
14117;BME280;7137;51.436;6.544;2023-05-09T05:32:16;101110.78;;;17.66;94.96
14117;BME280;7137;51.436;6.544;2023-05-09T05:35:18;101114.59;;;17.78;95.24
14117;BME280;7137;51.436;6.544;2023-05-09T05:38:23;101108.72;;;17.56;95.21
14117;BME280;7137;51.436;6.544;2023-05-09T05:41:25;101101.47;;;17.92;93.85
14117;BME280;7137;51.436;6.544;2023-05-09T05:44:26;101099.94;;;18.04;92.70
14117;BME280;7137;51.436;6.544;2023-05-09T05:47:28;101095.97;;;18.11;92.01
14117;BME280;7137;51.436;6.544;2023-05-09T05:50:30;101102.22;;;18.10;91.37
14117;BME280;7137;51.436;6.544;2023-05-09T05:53:33;101099.91;;;18.20;91.22
14117;BME280;7137;51.436;6.544;2023-05-09T05:56:34;101093.06;;;18.16;92.41
14117;BME280;7137;51.436;6.544;2023-05-09T05:59:36;101095.97;;;18.27;91.83
14117;BME280;7137;51.436;6.544;2023-05-09T06:02:37;101097.13;;;18.37;90.36
14117;BME280;7137;51.436;6.544;2023-05-09T06:05:41;101086.88;;;18.47;89.58
14117;BME280;7137;51.436;6.544;2023-05-09T06:08:43;101087.94;;;18.44;90.21
14117;BME280;7137;51.436;6.544;2023-05-09T06:11:45;101078.56;;;18.68;88.35
14117;BME280;7137;51.436;6.544;2023-05-09T06:14:47;101072.25;;;18.85;87.24
14117;BME280;7137;51.436;6.544;2023-05-09T06:17:48;101071.34;;;19.01;84.48
14117;BME280;7137;51.436;6.544;2023-05-09T06:20:50;101063.13;;;19.05;82.98
14117;BME280;7137;51.436;6.544;2023-05-09T06:23:52;101050.63;;;19.21;82.74
14117;BME280;7137;51.436;6.544;2023-05-09T06:26:54;101047.28;;;19.46;80.57
14117;BME280;7137;51.436;6.544;2023-05-09T06:29:55;101040.38;;;19.99;79.76
14117;BME280;7137;51.436;6.544;2023-05-09T06:32:57;101047.50;;;20.11;78.36
14117;BME280;7137;51.436;6.544;2023-05-09T06:35:59;101042.56;;;20.20;78.44
14117;BME280;7137;51.436;6.544;2023-05-09T06:39:02;101039.25;;;20.16;77.69
14117;BME280;7137;51.436;6.544;2023-05-09T06:42:03;101038.22;;;19.92;79.16
14117;BME280;7137;51.436;6.544;2023-05-09T06:45:05;101038.38;;;19.76;78.83
14117;BME280;7137;51.436;6.544;2023-05-09T06:48:07;101029.59;;;19.61;80.84
14117;BME280;7137;51.436;6.544;2023-05-09T06:51:08;101036.78;;;19.45;81.60
14117;BME280;7137;51.436;6.544;2023-05-09T06:54:12;101026.47;;;19.26;83.14
14117;BME280;7137;51.436;6.544;2023-05-09T06:57:13;101029.34;;;19.23;83.91
14117;BME280;7137;51.436;6.544;2023-05-09T07:00:15;101019.78;;;19.20;83.12
14117;BME280;7137;51.436;6.544;2023-05-09T07:03:17;101012.69;;;18.92;85.52
14117;BME280;7137;51.436;6.544;2023-05-09T07:06:18;101014.38;;;18.65;86.54
14117;BME280;7137;51.436;6.544;2023-05-09T07:09:21;101013.59;;;18.19;89.25
14117;BME280;7137;51.436;6.544;2023-05-09T07:12:27;101008.72;;;18.11;90.24
14117;BME280;7137;51.436;6.544;2023-05-09T07:15:28;101005.78;;;18.31;89.42
14117;BME280;7137;51.436;6.544;2023-05-09T07:18:30;100997.78;;;18.47;88.51
14117;BME280;7137;51.436;6.544;2023-05-09T07:21:31;100993.28;;;18.63;87.38
14117;BME280;7137;51.436;6.544;2023-05-09T07:24:34;100987.81;;;18.81;87.65
14117;BME280;7137;51.436;6.544;2023-05-09T07:27:36;100993.69;;;19.14;84.65
14117;BME280;7137;51.436;6.544;2023-05-09T07:30:38;100990.16;;;19.56;84.39
14117;BME280;7137;51.436;6.544;2023-05-09T07:33:39;100986.03;;;19.92;82.05
14117;BME280;7137;51.436;6.544;2023-05-09T07:36:41;100985.88;;;20.86;79.36
14117;BME280;7137;51.436;6.544;2023-05-09T07:39:44;100976.19;;;21.47;76.34
14117;BME280;7137;51.436;6.544;2023-05-09T07:42:48;100975.44;;;22.63;71.82
14117;BME280;7137;51.436;6.544;2023-05-09T07:45:50;100982.81;;;23.60;66.51
14117;BME280;7137;51.436;6.544;2023-05-09T07:48:52;100976.22;;;24.07;63.78
14117;BME280;7137;51.436;6.544;2023-05-09T07:51:53;100982.44;;;23.53;63.35
14117;BME280;7137;51.436;6.544;2023-05-09T07:54:56;100974.03;;;24.33;62.86
14117;BME280;7137;51.436;6.544;2023-05-09T07:57:58;100979.72;;;25.22;60.00
14117;BME280;7137;51.436;6.544;2023-05-09T08:00:59;100963.13;;;27.28;51.73
14117;BME280;7137;51.436;6.544;2023-05-09T08:04:01;100977.38;;;27.56;51.06
14117;BME280;7137;51.436;6.544;2023-05-09T08:07:04;100964.63;;;29.07;45.46
14117;BME280;7137;51.436;6.544;2023-05-09T08:10:09;100964.78;;;29.05;44.56
14117;BME280;7137;51.436;6.544;2023-05-09T08:13:11;100953.72;;;29.59;44.85
14117;BME280;7137;51.436;6.544;2023-05-09T08:16:12;100947.94;;;28.95;45.17
14117;BME280;7137;51.436;6.544;2023-05-09T08:19:14;100937.25;;;29.86;44.41
14117;BME280;7137;51.436;6.544;2023-05-09T08:22:16;100941.53;;;30.68;41.59
14117;BME280;7137;51.436;6.544;2023-05-09T08:25:19;100931.44;;;30.62;41.10
14117;BME280;7137;51.436;6.544;2023-05-09T08:28:21;100921.28;;;29.18;41.42
14117;BME280;7137;51.436;6.544;2023-05-09T08:31:23;100928.47;;;28.75;43.43
14117;BME280;7137;51.436;6.544;2023-05-09T08:34:26;100922.03;;;28.68;43.13
14117;BME280;7137;51.436;6.544;2023-05-09T08:37:27;100915.69;;;27.28;46.49
14117;BME280;7137;51.436;6.544;2023-05-09T08:40:34;100904.72;;;26.94;47.23
14117;BME280;7137;51.436;6.544;2023-05-09T08:43:36;100912.59;;;26.68;48.62
14117;BME280;7137;51.436;6.544;2023-05-09T08:46:41;100900.19;;;25.43;49.81
14117;BME280;7137;51.436;6.544;2023-05-09T08:49:43;100892.50;;;25.00;52.86
14117;BME280;7137;51.436;6.544;2023-05-09T08:52:45;100885.50;;;25.18;51.56
14117;BME280;7137;51.436;6.544;2023-05-09T08:55:49;100881.47;;;25.53;52.61
14117;BME280;7137;51.436;6.544;2023-05-09T08:58:52;100869.94;;;25.81;51.42
14117;BME280;7137;51.436;6.544;2023-05-09T09:01:54;100875.44;;;26.46;48.93
14117;BME280;7137;51.436;6.544;2023-05-09T09:04:56;100867.66;;;26.52;48.87
14117;BME280;7137;51.436;6.544;2023-05-09T09:07:57;100865.53;;;27.11;45.83
14117;BME280;7137;51.436;6.544;2023-05-09T09:11:01;100864.63;;;27.56;45.87
14117;BME280;7137;51.436;6.544;2023-05-09T09:14:06;100867.72;;;26.33;47.42
14117;BME280;7137;51.436;6.544;2023-05-09T09:17:16;100849.75;;;25.96;50.39
14117;BME280;7137;51.436;6.544;2023-05-09T09:20:20;100859.19;;;26.00;49.30
14117;BME280;7137;51.436;6.544;2023-05-09T09:23:24;100849.91;;;26.51;48.58
14117;BME280;7137;51.436;6.544;2023-05-09T09:26:27;100846.81;;;25.90;49.13
14117;BME280;7137;51.436;6.544;2023-05-09T09:29:31;100840.09;;;25.76;48.69
14117;BME280;7137;51.436;6.544;2023-05-09T09:32:34;100840.06;;;25.47;49.83
14117;BME280;7137;51.436;6.544;2023-05-09T09:35:37;100838.91;;;24.51;52.25
14117;BME280;7137;51.436;6.544;2023-05-09T09:38:40;100828.38;;;25.09;52.08
14117;BME280;7137;51.436;6.544;2023-05-09T09:41:44;100823.84;;;25.00;52.40
14117;BME280;7137;51.436;6.544;2023-05-09T09:44:50;100812.47;;;25.27;51.62
14117;BME280;7137;51.436;6.544;2023-05-09T09:47:51;100812.00;;;24.93;50.29
14117;BME280;7137;51.436;6.544;2023-05-09T09:50:54;100812.25;;;24.80;51.10
14117;BME280;7137;51.436;6.544;2023-05-09T09:53:56;100804.19;;;24.61;53.04
14117;BME280;7137;51.436;6.544;2023-05-09T09:56:59;100813.75;;;25.23;52.20
14117;BME280;7137;51.436;6.544;2023-05-09T10:00:01;100797.09;;;25.68;50.31
14117;BME280;7137;51.436;6.544;2023-05-09T10:03:02;100799.22;;;25.55;50.00
14117;BME280;7137;51.436;6.544;2023-05-09T10:06:08;100804.00;;;25.03;53.60
14117;BME280;7137;51.436;6.544;2023-05-09T10:09:10;100792.56;;;24.91;51.78
14117;BME280;7137;51.436;6.544;2023-05-09T10:12:13;100784.09;;;24.76;52.71
14117;BME280;7137;51.436;6.544;2023-05-09T10:15:18;100776.84;;;24.08;53.48
14117;BME280;7137;51.436;6.544;2023-05-09T10:18:24;100779.25;;;25.01;52.72
14117;BME280;7137;51.436;6.544;2023-05-09T10:21:25;100778.94;;;25.71;51.89
14117;BME280;7137;51.436;6.544;2023-05-09T10:24:31;100777.97;;;25.05;51.27
14117;BME280;7137;51.436;6.544;2023-05-09T10:27:35;100770.63;;;24.97;51.78
14117;BME280;7137;51.436;6.544;2023-05-09T10:30:47;100766.97;;;24.88;51.65
14117;BME280;7137;51.436;6.544;2023-05-09T10:33:50;100763.56;;;25.83;50.72
14117;BME280;7137;51.436;6.544;2023-05-09T10:36:53;100759.25;;;24.95;52.42
14117;BME280;7137;51.436;6.544;2023-05-09T10:39:55;100759.16;;;24.37;54.13
14117;BME280;7137;51.436;6.544;2023-05-09T10:42:59;100765.56;;;23.74;56.47
14117;BME280;7137;51.436;6.544;2023-05-09T10:46:01;100754.31;;;22.42;62.23
14117;BME280;7137;51.436;6.544;2023-05-09T10:49:03;100752.59;;;21.85;64.45
14117;BME280;7137;51.436;6.544;2023-05-09T10:52:05;100747.41;;;22.06;64.30
14117;BME280;7137;51.436;6.544;2023-05-09T10:55:08;100739.66;;;22.79;64.01
14117;BME280;7137;51.436;6.544;2023-05-09T10:58:20;100735.91;;;22.93;62.67
14117;BME280;7137;51.436;6.544;2023-05-09T11:01:31;100729.34;;;22.97;62.50
14117;BME280;7137;51.436;6.544;2023-05-09T11:04:34;100734.00;;;23.37;62.68
14117;BME280;7137;51.436;6.544;2023-05-09T11:07:35;100727.81;;;23.78;61.56
14117;BME280;7137;51.436;6.544;2023-05-09T11:10:41;100719.34;;;24.04;59.25
14117;BME280;7137;51.436;6.544;2023-05-09T11:13:44;100721.66;;;24.87;58.95
14117;BME280;7137;51.436;6.544;2023-05-09T11:16:56;100718.56;;;25.96;53.01
14117;BME280;7137;51.436;6.544;2023-05-09T11:20:03;100708.44;;;24.85;54.50
14117;BME280;7137;51.436;6.544;2023-05-09T11:23:07;100707.72;;;25.32;53.96
14117;BME280;7137;51.436;6.544;2023-05-09T11:26:13;100702.81;;;25.37;53.33
14117;BME280;7137;51.436;6.544;2023-05-09T11:29:16;100695.22;;;24.65;56.22
14117;BME280;7137;51.436;6.544;2023-05-09T11:32:19;100691.22;;;23.38;59.93
14117;BME280;7137;51.436;6.544;2023-05-09T11:35:22;100688.94;;;22.38;64.51
14117;BME280;7137;51.436;6.544;2023-05-09T11:38:25;100691.16;;;21.54;66.59
14117;BME280;7137;51.436;6.544;2023-05-09T11:41:42;100681.97;;;22.26;65.17
14117;BME280;7137;51.436;6.544;2023-05-09T11:44:45;100681.31;;;22.44;65.16
14117;BME280;7137;51.436;6.544;2023-05-09T11:47:49;100676.25;;;22.73;64.15
14117;BME280;7137;51.436;6.544;2023-05-09T11:50:51;100670.13;;;22.62;63.37
14117;BME280;7137;51.436;6.544;2023-05-09T11:53:53;100659.84;;;22.57;63.82
14117;BME280;7137;51.436;6.544;2023-05-09T11:56:56;100656.22;;;22.79;63.12
14117;BME280;7137;51.436;6.544;2023-05-09T12:00:01;100647.53;;;22.45;69.42
14117;BME280;7137;51.436;6.544;2023-05-09T12:03:04;100643.31;;;22.42;69.98
14117;BME280;7137;51.436;6.544;2023-05-09T12:06:06;100638.69;;;22.12;71.37
14117;BME280;7137;51.436;6.544;2023-05-09T12:09:09;100640.03;;;21.73;74.12
14117;BME280;7137;51.436;6.544;2023-05-09T12:12:11;100634.44;;;21.99;72.80
14117;BME280;7137;51.436;6.544;2023-05-09T12:15:15;100636.41;;;21.74;72.02
14117;BME280;7137;51.436;6.544;2023-05-09T12:18:17;100642.06;;;22.03;71.32
14117;BME280;7137;51.436;6.544;2023-05-09T12:21:19;100635.41;;;21.98;71.50
14117;BME280;7137;51.436;6.544;2023-05-09T12:24:21;100633.00;;;22.06;72.19
14117;BME280;7137;51.436;6.544;2023-05-09T12:27:23;100631.53;;;22.02;72.62
14117;BME280;7137;51.436;6.544;2023-05-09T12:30:27;100635.31;;;21.77;74.13
14117;BME280;7137;51.436;6.544;2023-05-09T12:33:29;100624.78;;;21.75;77.15
14117;BME280;7137;51.436;6.544;2023-05-09T12:36:33;100623.09;;;21.85;76.34
14117;BME280;7137;51.436;6.544;2023-05-09T12:39:35;100645.16;;;21.19;81.62
14117;BME280;7137;51.436;6.544;2023-05-09T12:42:37;100637.63;;;20.19;86.88
14117;BME280;7137;51.436;6.544;2023-05-09T12:45:40;100637.91;;;19.14;90.94
14117;BME280;7137;51.436;6.544;2023-05-09T12:48:42;100642.81;;;18.67;96.52
14117;BME280;7137;51.436;6.544;2023-05-09T12:51:47;100641.13;;;18.39;97.89
14117;BME280;7137;51.436;6.544;2023-05-09T12:54:51;100639.66;;;18.21;100.00
14117;BME280;7137;51.436;6.544;2023-05-09T12:57:57;100627.41;;;18.20;98.83
14117;BME280;7137;51.436;6.544;2023-05-09T13:01:02;100636.28;;;18.19;100.00
14117;BME280;7137;51.436;6.544;2023-05-09T13:04:05;100632.53;;;18.36;99.67
14117;BME280;7137;51.436;6.544;2023-05-09T13:07:08;100635.34;;;18.47;100.00
14117;BME280;7137;51.436;6.544;2023-05-09T13:10:13;100625.34;;;18.65;97.34
14117;BME280;7137;51.436;6.544;2023-05-09T13:13:18;100622.03;;;18.88;97.67
14117;BME280;7137;51.436;6.544;2023-05-09T13:16:22;100620.56;;;19.10;96.50
14117;BME280;7137;51.436;6.544;2023-05-09T13:19:24;100620.13;;;19.41;95.66
14117;BME280;7137;51.436;6.544;2023-05-09T13:22:26;100630.75;;;19.16;94.28
14117;BME280;7137;51.436;6.544;2023-05-09T13:25:28;100625.44;;;19.41;94.73
14117;BME280;7137;51.436;6.544;2023-05-09T13:28:29;100615.47;;;19.45;94.88
14117;BME280;7137;51.436;6.544;2023-05-09T13:31:32;100614.66;;;19.94;93.37
14117;BME280;7137;51.436;6.544;2023-05-09T13:34:34;100607.78;;;20.28;90.23
14117;BME280;7137;51.436;6.544;2023-05-09T13:37:35;100611.25;;;20.76;87.40
14117;BME280;7137;51.436;6.544;2023-05-09T13:40:37;100604.47;;;20.00;87.65
14117;BME280;7137;51.436;6.544;2023-05-09T13:43:38;100613.44;;;20.10;89.32
14117;BME280;7137;51.436;6.544;2023-05-09T13:46:43;100607.47;;;20.20;89.83
14117;BME280;7137;51.436;6.544;2023-05-09T13:49:45;100607.09;;;20.13;87.94
14117;BME280;7137;51.436;6.544;2023-05-09T13:52:47;100604.47;;;19.64;90.93
14117;BME280;7137;51.436;6.544;2023-05-09T13:55:49;100596.63;;;19.62;90.50
14117;BME280;7137;51.436;6.544;2023-05-09T13:58:50;100594.41;;;19.18;92.39
14117;BME280;7137;51.436;6.544;2023-05-09T14:01:53;100594.69;;;19.39;94.70
14117;BME280;7137;51.436;6.544;2023-05-09T14:04:56;100588.66;;;19.24;92.83
14117;BME280;7137;51.436;6.544;2023-05-09T14:07:59;100573.00;;;19.08;95.26
14117;BME280;7137;51.436;6.544;2023-05-09T14:11:01;100579.69;;;19.01;95.45
14117;BME280;7137;51.436;6.544;2023-05-09T14:14:02;100577.91;;;18.62;93.95
14117;BME280;7137;51.436;6.544;2023-05-09T14:17:05;100570.25;;;18.57;95.98
14117;BME280;7137;51.436;6.544;2023-05-09T14:20:07;100573.22;;;18.92;95.92
14117;BME280;7137;51.436;6.544;2023-05-09T14:23:09;100563.03;;;19.12;95.55
14117;BME280;7137;51.436;6.544;2023-05-09T14:26:11;100564.72;;;19.25;93.04
14117;BME280;7137;51.436;6.544;2023-05-09T14:29:12;100553.28;;;19.25;92.72
14117;BME280;7137;51.436;6.544;2023-05-09T14:32:16;100555.53;;;19.06;92.69
14117;BME280;7137;51.436;6.544;2023-05-09T14:35:17;100560.81;;;19.06;93.01
14117;BME280;7137;51.436;6.544;2023-05-09T14:38:19;100547.34;;;18.83;95.76
14117;BME280;7137;51.436;6.544;2023-05-09T14:41:20;100545.19;;;18.63;96.01
14117;BME280;7137;51.436;6.544;2023-05-09T14:44:22;100545.75;;;18.68;97.99
14117;BME280;7137;51.436;6.544;2023-05-09T14:47:26;100544.47;;;18.61;96.26
14117;BME280;7137;51.436;6.544;2023-05-09T14:50:28;100537.00;;;18.40;95.79
14117;BME280;7137;51.436;6.544;2023-05-09T14:53:29;100547.69;;;18.39;97.65
14117;BME280;7137;51.436;6.544;2023-05-09T14:56:31;100540.38;;;18.43;98.73
14117;BME280;7137;51.436;6.544;2023-05-09T14:59:33;100541.41;;;18.27;96.02
14117;BME280;7137;51.436;6.544;2023-05-09T15:02:36;100545.00;;;17.99;97.74
14117;BME280;7137;51.436;6.544;2023-05-09T15:05:39;100539.28;;;18.20;97.21
14117;BME280;7137;51.436;6.544;2023-05-09T15:08:40;100538.19;;;18.09;99.09
14117;BME280;7137;51.436;6.544;2023-05-09T15:11:42;100532.16;;;18.07;98.49
14117;BME280;7137;51.436;6.544;2023-05-09T15:14:45;100526.81;;;17.95;97.42
14117;BME280;7137;51.436;6.544;2023-05-09T15:17:49;100523.75;;;17.88;97.13
14117;BME280;7137;51.436;6.544;2023-05-09T15:20:50;100536.66;;;18.20;97.51
14117;BME280;7137;51.436;6.544;2023-05-09T15:23:52;100521.94;;;17.89;97.06
14117;BME280;7137;51.436;6.544;2023-05-09T15:26:54;100523.13;;;17.97;99.07
14117;BME280;7137;51.436;6.544;2023-05-09T15:29:55;100527.63;;;18.09;97.11
14117;BME280;7137;51.436;6.544;2023-05-09T15:32:58;100531.00;;;18.12;98.11
14117;BME280;7137;51.436;6.544;2023-05-09T15:36:00;100526.03;;;18.07;96.71
14117;BME280;7137;51.436;6.544;2023-05-09T15:39:02;100518.34;;;17.90;97.01
14117;BME280;7137;51.436;6.544;2023-05-09T15:42:04;100517.63;;;17.73;97.05
14117;BME280;7137;51.436;6.544;2023-05-09T15:45:08;100515.34;;;17.82;98.55
14117;BME280;7137;51.436;6.544;2023-05-09T15:48:11;100502.88;;;17.84;98.10
14117;BME280;7137;51.436;6.544;2023-05-09T15:51:12;100502.19;;;17.53;98.53
14117;BME280;7137;51.436;6.544;2023-05-09T15:54:14;100495.63;;;17.32;99.76
14117;BME280;7137;51.436;6.544;2023-05-09T15:57:16;100491.69;;;16.96;100.00
14117;BME280;7137;51.436;6.544;2023-05-09T16:00:17;100493.69;;;16.92;100.00
14117;BME280;7137;51.436;6.544;2023-05-09T16:03:21;100486.69;;;17.06;100.00
14117;BME280;7137;51.436;6.544;2023-05-09T16:06:25;100486.28;;;17.26;100.00
14117;BME280;7137;51.436;6.544;2023-05-09T16:09:27;100474.56;;;17.44;100.00
14117;BME280;7137;51.436;6.544;2023-05-09T16:12:29;100465.56;;;17.75;100.00
14117;BME280;7137;51.436;6.544;2023-05-09T16:15:31;100477.00;;;17.62;100.00